createdAt,value
2019-05-10T00:00:55.340Z,0.00
2019-05-10T00:01:55.328Z,0.00
2019-05-10T00:02:55.319Z,0.00
2019-05-10T00:03:55.361Z,0.00
2019-05-10T00:04:55.326Z,0.00
2019-05-10T00:05:55.302Z,0.00
2019-05-10T00:06:55.273Z,0.00
2019-05-10T00:07:55.264Z,0.00
2019-05-10T00:08:55.249Z,0.00
2019-05-10T00:09:55.238Z,0.00
2019-05-10T00:10:55.236Z,0.00
2019-05-10T00:11:55.216Z,0.00
2019-05-10T00:12:55.204Z,0.00
2019-05-10T00:13:55.194Z,0.00
2019-05-10T00:14:55.182Z,0.00
2019-05-10T00:15:55.171Z,0.00
2019-05-10T00:16:55.193Z,0.00
2019-05-10T00:17:55.156Z,0.00
2019-05-10T00:18:55.137Z,0.00
2019-05-10T00:19:55.127Z,0.00
2019-05-10T00:20:55.115Z,0.00
2019-05-10T00:21:55.105Z,0.00
2019-05-10T00:22:55.118Z,0.00
2019-05-10T00:23:55.081Z,0.00
2019-05-10T00:25:03.693Z,0.00
2019-05-10T00:25:56.058Z,0.00
2019-05-10T00:26:55.047Z,0.00
2019-05-10T00:27:55.037Z,0.00
2019-05-10T00:28:55.051Z,0.00
2019-05-10T00:29:55.019Z,0.00
2019-05-10T00:30:55.002Z,0.00
2019-05-10T00:31:54.990Z,0.00
2019-05-10T00:32:54.981Z,0.00
2019-05-10T00:33:54.968Z,0.00
2019-05-10T00:34:54.965Z,0.00
2019-05-10T00:35:54.946Z,0.00
2019-05-10T00:36:54.939Z,0.00
2019-05-10T00:37:54.923Z,0.00
2019-05-10T00:38:54.912Z,0.00
2019-05-10T00:39:54.900Z,0.00
2019-05-10T00:40:54.898Z,0.00
2019-05-10T00:41:54.881Z,0.00
2019-05-10T00:42:54.867Z,0.00
2019-05-10T00:43:54.857Z,0.00
2019-05-10T00:44:54.845Z,0.00
2019-05-10T00:45:54.834Z,0.00
2019-05-10T00:46:54.831Z,0.00
2019-05-10T00:47:54.811Z,0.00
2019-05-10T00:48:54.801Z,0.00
2019-05-10T00:49:54.789Z,0.00
2019-05-10T00:50:54.780Z,0.00
2019-05-10T00:51:54.764Z,0.00
2019-05-10T00:52:54.784Z,0.00
2019-05-10T00:53:54.743Z,0.00
2019-05-10T00:54:54.731Z,0.00
2019-05-10T00:55:54.721Z,0.00
2019-05-10T00:56:54.713Z,0.00
2019-05-10T00:57:54.698Z,0.00
2019-05-10T00:58:54.700Z,0.00
2019-05-10T00:59:54.675Z,0.00
2019-05-10T01:00:54.663Z,0.00
2019-05-10T01:01:54.653Z,0.00
2019-05-10T01:02:54.643Z,0.00
2019-05-10T01:03:54.631Z,0.00
2019-05-10T01:04:54.677Z,0.00
2019-05-10T01:05:54.607Z,0.00
2019-05-10T01:06:56.525Z,0.00
2019-05-10T01:07:54.588Z,0.00
2019-05-10T01:08:54.576Z,0.00
2019-05-10T01:09:54.563Z,0.00
2019-05-10T01:10:54.560Z,0.00
2019-05-10T01:11:54.544Z,0.00
2019-05-10T01:12:54.529Z,0.00
2019-05-10T01:13:54.518Z,0.00
2019-05-10T01:14:54.507Z,0.00
2019-05-10T01:15:54.495Z,0.00
2019-05-10T01:16:54.493Z,0.00
2019-05-10T01:17:54.474Z,0.00
2019-05-10T01:18:54.461Z,0.00
2019-05-10T01:19:54.473Z,0.00
2019-05-10T01:20:54.439Z,0.00
2019-05-10T01:21:54.428Z,0.00
2019-05-10T01:22:54.426Z,0.00
2019-05-10T01:23:54.441Z,0.00
2019-05-10T01:24:54.395Z,0.00
2019-05-10T01:25:54.383Z,0.00
2019-05-10T01:26:54.371Z,0.00
2019-05-10T01:27:54.360Z,0.00
2019-05-10T01:28:54.380Z,0.00
2019-05-10T01:29:54.338Z,0.00
2019-05-10T01:30:54.327Z,0.00
2019-05-10T01:31:54.326Z,0.00
2019-05-10T01:32:54.307Z,0.00
2019-05-10T01:33:54.292Z,0.00
2019-05-10T01:34:54.290Z,0.00
2019-05-10T01:35:54.271Z,0.00
2019-05-10T01:36:54.259Z,0.00
2019-05-10T01:37:54.248Z,0.00
2019-05-10T01:38:54.236Z,0.00
2019-05-10T01:39:54.228Z,0.00
2019-05-10T01:40:54.248Z,0.00
2019-05-10T01:41:54.202Z,0.00
2019-05-10T01:42:54.228Z,0.00
2019-05-10T01:43:54.180Z,0.00
2019-05-10T01:44:54.168Z,0.00
2019-05-10T01:45:54.158Z,0.00
2019-05-10T01:46:54.153Z,0.00
2019-05-10T01:47:54.137Z,0.00
2019-05-10T01:48:54.124Z,0.00
2019-05-10T01:49:54.113Z,0.00
2019-05-10T01:50:54.105Z,0.00
2019-05-10T01:51:54.090Z,0.00
2019-05-10T01:52:54.087Z,0.00
2019-05-10T01:53:54.069Z,0.00
2019-05-10T01:54:54.056Z,0.00
2019-05-10T01:55:54.050Z,0.00
2019-05-10T01:56:54.034Z,0.00
2019-05-10T01:57:54.022Z,0.00
2019-05-10T01:58:54.044Z,0.00
2019-05-10T01:59:54.000Z,0.00
2019-05-10T02:00:53.989Z,0.00
2019-05-10T02:01:53.979Z,0.00
2019-05-10T02:02:53.967Z,0.00
2019-05-10T02:03:53.955Z,0.00
2019-05-10T02:04:53.973Z,0.00
2019-05-10T02:05:53.933Z,0.00
2019-05-10T02:06:53.922Z,0.00
2019-05-10T02:07:53.976Z,0.00
2019-05-10T02:08:53.899Z,0.00
2019-05-10T02:09:53.888Z,0.00
2019-05-10T02:10:53.884Z,0.00
2019-05-10T02:11:53.867Z,0.00
2019-05-10T02:12:53.854Z,0.00
2019-05-10T02:13:53.845Z,0.00
2019-05-10T02:14:53.832Z,0.00
2019-05-10T02:15:53.821Z,0.00
2019-05-10T02:16:53.830Z,0.00
2019-05-10T02:17:53.798Z,0.00
2019-05-10T02:18:53.787Z,0.00
2019-05-10T02:19:53.781Z,0.00
2019-05-10T02:20:53.765Z,0.00
2019-05-10T02:21:53.753Z,0.00
2019-05-10T02:22:53.773Z,0.00
2019-05-10T02:23:53.733Z,0.00
2019-05-10T02:24:53.722Z,0.00
2019-05-10T02:26:08.435Z,0.00
2019-05-10T02:26:54.695Z,0.00
2019-05-10T02:27:53.685Z,0.00
2019-05-10T02:28:53.683Z,0.00
2019-05-10T02:29:53.666Z,0.00
2019-05-10T02:30:53.653Z,0.00
2019-05-10T02:31:53.651Z,0.00
2019-05-10T02:32:53.635Z,0.00
2019-05-10T02:33:53.618Z,0.00
2019-05-10T02:34:53.639Z,0.00
2019-05-10T02:35:53.597Z,0.00
2019-05-10T02:36:53.584Z,0.00
2019-05-10T02:37:53.597Z,0.00
2019-05-10T02:38:53.562Z,0.00
2019-05-10T02:39:53.551Z,0.00
2019-05-10T02:40:53.572Z,0.00
2019-05-10T02:41:53.530Z,0.00
2019-05-10T02:42:53.522Z,0.00
2019-05-10T02:43:53.506Z,0.00
2019-05-10T02:44:53.494Z,0.00
2019-05-10T02:45:53.502Z,0.00
2019-05-10T02:46:53.479Z,0.00
2019-05-10T02:47:53.468Z,0.00
2019-05-10T02:48:53.450Z,0.00
2019-05-10T02:49:53.439Z,0.00
2019-05-10T02:50:53.433Z,0.00
2019-05-10T02:51:53.419Z,0.00
2019-05-10T02:52:53.411Z,0.00
2019-05-10T02:53:53.394Z,0.00
2019-05-10T02:54:53.383Z,0.00
2019-05-10T02:55:53.369Z,0.00
2019-05-10T02:56:53.367Z,0.00
2019-05-10T02:57:53.346Z,0.00
2019-05-10T02:58:53.343Z,0.00
2019-05-10T02:59:53.324Z,0.00
2019-05-10T03:00:53.314Z,0.00
2019-05-10T03:01:53.302Z,0.00
2019-05-10T03:02:53.292Z,0.00
2019-05-10T03:03:53.282Z,0.00
2019-05-10T03:04:53.301Z,0.00
2019-05-10T03:05:53.258Z,0.00
2019-05-10T03:06:53.247Z,0.00
2019-05-10T03:07:53.239Z,0.00
2019-05-10T03:08:53.224Z,0.00
2019-05-10T03:09:53.224Z,0.00
2019-05-10T03:10:53.211Z,0.00
2019-05-10T03:11:53.191Z,0.00
2019-05-10T03:12:53.184Z,0.00
2019-05-10T03:13:53.171Z,0.00
2019-05-10T03:14:53.156Z,0.00
2019-05-10T03:15:53.149Z,0.00
2019-05-10T03:16:53.167Z,0.00
2019-05-10T03:17:53.127Z,0.00
2019-05-10T03:18:53.120Z,0.00
2019-05-10T03:19:53.099Z,0.00
2019-05-10T03:20:53.090Z,0.00
2019-05-10T03:21:53.078Z,0.00
2019-05-10T03:22:53.105Z,0.00
2019-05-10T03:23:53.055Z,0.00
2019-05-10T03:24:53.045Z,0.00
2019-05-10T03:25:53.047Z,0.00
2019-05-10T03:26:53.022Z,0.00
2019-05-10T03:27:53.017Z,0.00
2019-05-10T03:28:53.005Z,0.00
2019-05-10T03:29:52.989Z,0.00
2019-05-10T03:30:52.986Z,0.00
2019-05-10T03:31:52.966Z,0.00
2019-05-10T03:32:52.962Z,0.00
2019-05-10T03:33:56.302Z,0.00
2019-05-10T03:34:52.954Z,0.00
2019-05-10T03:35:52.927Z,0.00
2019-05-10T03:36:52.908Z,0.00
2019-05-10T03:37:52.901Z,0.00
2019-05-10T03:38:52.893Z,0.00
2019-05-10T03:39:52.874Z,0.00
2019-05-10T03:40:52.898Z,0.00
2019-05-10T03:41:52.854Z,0.00
2019-05-10T03:42:52.850Z,0.00
2019-05-10T03:43:52.833Z,0.00
2019-05-10T03:44:52.818Z,0.00
2019-05-10T03:45:52.807Z,0.00
2019-05-10T03:46:52.802Z,4.00
2019-05-10T03:47:52.791Z,4.00
2019-05-10T03:48:52.779Z,4.00
2019-05-10T03:49:52.761Z,4.00
2019-05-10T03:50:52.753Z,4.00
2019-05-10T03:51:52.740Z,4.00
2019-05-10T03:52:52.908Z,4.00
2019-05-10T03:53:52.725Z,4.00
2019-05-10T03:54:52.717Z,0.00
2019-05-10T03:55:52.697Z,0.00
2019-05-10T03:57:11.245Z,4.00
2019-05-10T03:57:53.684Z,4.00
2019-05-10T03:58:52.662Z,4.00
2019-05-10T03:59:52.651Z,4.00
2019-05-10T04:00:52.649Z,4.00
2019-05-10T04:01:52.627Z,4.00
2019-05-10T04:02:52.621Z,4.00
2019-05-10T04:03:52.614Z,4.00
2019-05-10T04:04:52.593Z,4.00
2019-05-10T04:05:52.591Z,8.00
2019-05-10T04:06:52.571Z,8.00
2019-05-10T04:07:52.558Z,4.00
2019-05-10T04:08:52.549Z,4.00
2019-05-10T04:09:52.559Z,4.00
2019-05-10T04:10:52.531Z,4.00
2019-05-10T04:11:52.517Z,8.00
2019-05-10T04:12:52.503Z,8.00
2019-05-10T04:13:52.492Z,8.00
2019-05-10T04:14:52.485Z,8.00
2019-05-10T04:15:52.498Z,4.00
2019-05-10T04:16:52.458Z,8.00
2019-05-10T04:17:52.447Z,8.00
2019-05-10T04:18:52.435Z,8.00
2019-05-10T04:19:52.424Z,8.00
2019-05-10T04:20:52.417Z,8.00
2019-05-10T04:21:52.427Z,8.00
2019-05-10T04:22:52.393Z,8.00
2019-05-10T04:23:52.380Z,8.00
2019-05-10T04:24:52.368Z,8.00
2019-05-10T04:25:52.370Z,12.00
2019-05-10T04:26:52.362Z,12.00
2019-05-10T04:27:52.368Z,8.00
2019-05-10T04:28:52.335Z,12.00
2019-05-10T04:29:52.313Z,8.00
2019-05-10T04:30:52.300Z,8.00
2019-05-10T04:31:52.292Z,8.00
2019-05-10T04:32:52.284Z,8.00
2019-05-10T04:33:52.290Z,8.00
2019-05-10T04:34:52.256Z,8.00
2019-05-10T04:35:52.244Z,8.00
2019-05-10T04:36:52.232Z,8.00
2019-05-10T04:37:52.236Z,8.00
2019-05-10T04:38:52.216Z,8.00
2019-05-10T04:39:52.208Z,8.00
2019-05-10T04:40:52.201Z,8.00
2019-05-10T04:41:52.176Z,8.00
2019-05-10T04:42:52.170Z,8.00
2019-05-10T04:43:52.159Z,8.00
2019-05-10T04:44:53.375Z,8.00
2019-05-10T04:45:52.143Z,8.00
2019-05-10T04:46:52.124Z,8.00
2019-05-10T04:47:52.110Z,8.00
2019-05-10T04:48:52.102Z,8.00
2019-05-10T04:49:52.089Z,12.00
2019-05-10T04:50:52.076Z,8.00
2019-05-10T04:51:52.071Z,8.00
2019-05-10T04:52:52.056Z,8.00
2019-05-10T04:53:52.041Z,12.00
2019-05-10T04:54:52.030Z,12.00
2019-05-10T04:55:52.021Z,12.00
2019-05-10T04:56:52.008Z,12.00
2019-05-10T04:57:52.006Z,12.00
2019-05-10T04:58:51.985Z,12.00
2019-05-10T04:59:51.974Z,8.00
2019-05-10T05:00:51.965Z,12.00
2019-05-10T05:01:51.952Z,12.00
2019-05-10T05:02:51.941Z,12.00
2019-05-10T05:03:51.939Z,8.00
2019-05-10T05:04:51.917Z,8.00
2019-05-10T05:05:51.907Z,8.00
2019-05-10T05:06:51.897Z,8.00
2019-05-10T05:07:51.884Z,12.00
2019-05-10T05:08:51.897Z,12.00
2019-05-10T05:09:51.948Z,12.00
2019-05-10T05:10:51.862Z,12.00
2019-05-10T05:11:51.842Z,8.00
2019-05-10T05:12:51.831Z,12.00
2019-05-10T05:13:51.818Z,12.00
2019-05-10T05:14:51.805Z,12.00
2019-05-10T05:15:51.806Z,12.00
2019-05-10T05:16:51.783Z,12.00
2019-05-10T05:17:51.772Z,12.00
2019-05-10T05:18:51.762Z,16.00
2019-05-10T05:19:51.750Z,16.00
2019-05-10T05:20:51.738Z,16.00
2019-05-10T05:21:51.762Z,16.00
2019-05-10T05:22:51.717Z,20.00
2019-05-10T05:23:51.705Z,16.00
2019-05-10T05:24:55.205Z,20.00
2019-05-10T05:25:52.678Z,24.00
2019-05-10T05:26:51.672Z,20.00
2019-05-10T05:28:06.540Z,20.00
2019-05-10T05:28:52.647Z,24.00
2019-05-10T05:29:51.639Z,24.00
2019-05-10T05:30:51.625Z,20.00
2019-05-10T05:31:53.942Z,24.00
2019-05-10T05:32:52.632Z,24.00
2019-05-10T05:33:51.592Z,28.00
2019-05-10T05:34:51.585Z,24.00
2019-05-10T05:35:51.569Z,24.00
2019-05-10T05:36:51.558Z,28.00
2019-05-10T05:37:51.546Z,28.00
2019-05-10T05:38:51.572Z,28.00
2019-05-10T05:39:51.524Z,28.00
2019-05-10T05:40:51.512Z,28.00
2019-05-10T05:41:53.059Z,32.00
2019-05-10T05:42:51.493Z,28.00
2019-05-10T05:43:51.478Z,32.00
2019-05-10T05:44:51.500Z,32.00
2019-05-10T05:45:51.460Z,32.00
2019-05-10T05:46:51.446Z,32.00
2019-05-10T05:47:51.434Z,36.00
2019-05-10T05:48:51.719Z,36.00
2019-05-10T05:49:51.412Z,40.00
2019-05-10T05:50:51.431Z,40.00
2019-05-10T05:51:51.390Z,44.00
2019-05-10T05:52:51.392Z,40.00
2019-05-10T05:53:51.411Z,44.00
2019-05-10T05:54:53.010Z,44.00
2019-05-10T05:55:52.353Z,48.00
2019-05-10T05:56:53.135Z,44.00
2019-05-10T05:57:51.321Z,48.00
2019-05-10T05:58:51.310Z,48.00
2019-05-10T05:59:51.300Z,48.00
2019-05-10T06:00:51.293Z,52.00
2019-05-10T06:01:51.309Z,56.00
2019-05-10T06:02:51.267Z,56.00
2019-05-10T06:03:51.253Z,60.00
2019-05-10T06:04:51.259Z,60.00
2019-05-10T06:05:51.233Z,68.00
2019-05-10T06:06:53.627Z,80.00
2019-05-10T06:07:52.579Z,76.00
2019-05-10T06:08:54.411Z,76.00
2019-05-10T06:09:52.184Z,72.00
2019-05-10T06:10:57.797Z,64.00
2019-05-10T06:11:52.162Z,64.00
2019-05-10T06:12:52.999Z,56.00
2019-05-10T06:13:51.168Z,60.00
2019-05-10T06:14:52.401Z,56.00
2019-05-10T06:15:51.119Z,60.00
2019-05-10T06:16:53.032Z,56.00
2019-05-10T06:17:56.453Z,56.00
2019-05-10T06:18:52.093Z,56.00
2019-05-10T06:19:51.072Z,56.00
2019-05-10T06:20:51.062Z,60.00
2019-05-10T06:21:51.054Z,68.00
2019-05-10T06:23:05.576Z,60.00
2019-05-10T06:23:52.027Z,56.00
2019-05-10T06:24:52.504Z,52.00
2019-05-10T06:25:51.007Z,52.00
2019-05-10T06:26:50.994Z,52.00
2019-05-10T06:27:50.981Z,52.00
2019-05-10T06:29:03.765Z,56.00
2019-05-10T06:29:51.971Z,56.00
2019-05-10T06:30:50.949Z,56.00
2019-05-10T06:31:50.937Z,56.00
2019-05-10T06:32:53.239Z,60.00
2019-05-10T06:33:51.913Z,56.00
2019-05-10T06:34:50.909Z,60.00
2019-05-10T06:35:50.900Z,60.00
2019-05-10T06:36:50.880Z,60.00
2019-05-10T06:37:50.872Z,60.00
2019-05-10T06:38:50.858Z,60.00
2019-05-10T06:39:50.851Z,60.00
2019-05-10T06:40:50.843Z,60.00
2019-05-10T06:41:56.267Z,64.00
2019-05-10T06:42:51.815Z,64.00
2019-05-10T06:43:52.874Z,68.00
2019-05-10T06:44:50.791Z,68.00
2019-05-10T06:45:52.380Z,60.00
2019-05-10T06:46:50.767Z,60.00
2019-05-10T06:47:53.466Z,60.00
2019-05-10T06:48:50.745Z,56.00
2019-05-10T06:49:52.314Z,56.00
2019-05-10T06:50:50.723Z,60.00
2019-05-10T06:51:51.035Z,60.00
2019-05-10T06:52:52.098Z,60.00
2019-05-10T06:53:53.544Z,60.00
2019-05-10T06:54:50.680Z,60.00
2019-05-10T06:55:50.668Z,56.00
2019-05-10T06:56:50.655Z,56.00
2019-05-10T06:57:59.311Z,56.00
2019-05-10T06:58:51.643Z,56.00
2019-05-10T06:59:50.623Z,60.00
2019-05-10T07:00:50.617Z,56.00
2019-05-10T07:01:52.040Z,56.00
2019-05-10T07:02:51.070Z,60.00
2019-05-10T07:03:50.577Z,60.00
2019-05-10T07:04:51.038Z,60.00
2019-05-10T07:05:50.557Z,60.00
2019-05-10T07:06:50.568Z,60.00
2019-05-10T07:07:50.533Z,64.00
2019-05-10T07:08:51.970Z,64.00
2019-05-10T07:10:15.835Z,64.00
2019-05-10T07:10:51.496Z,64.00
2019-05-10T07:11:50.492Z,68.00
2019-05-10T07:12:50.499Z,68.00
2019-05-10T07:13:53.025Z,68.00
2019-05-10T07:14:50.452Z,68.00
2019-05-10T07:15:50.449Z,72.00
2019-05-10T07:16:50.429Z,72.00
2019-05-10T07:17:50.419Z,72.00
2019-05-10T07:18:54.966Z,72.00
2019-05-10T07:19:54.902Z,72.00
2019-05-10T07:20:50.384Z,76.00
2019-05-10T07:21:51.133Z,76.00
2019-05-10T07:22:50.362Z,76.00
2019-05-10T07:23:50.351Z,80.00
2019-05-10T07:24:50.340Z,80.00
2019-05-10T07:25:50.328Z,80.00
2019-05-10T07:26:50.316Z,80.00
2019-05-10T07:27:50.590Z,84.00
2019-05-10T07:28:51.896Z,84.00
2019-05-10T07:29:51.283Z,88.00
2019-05-10T07:30:50.272Z,88.00
2019-05-10T07:31:50.261Z,84.00
2019-05-10T07:32:54.601Z,80.00
2019-05-10T07:33:51.248Z,84.00
2019-05-10T07:34:59.149Z,80.00
2019-05-10T07:35:51.218Z,76.00
2019-05-10T07:36:50.204Z,80.00
2019-05-10T07:37:51.906Z,80.00
2019-05-10T07:38:50.181Z,76.00
2019-05-10T07:39:50.179Z,76.00
2019-05-10T07:40:50.161Z,76.00
2019-05-10T07:41:50.153Z,76.00
2019-05-10T07:42:50.137Z,76.00
2019-05-10T07:43:50.126Z,76.00
2019-05-10T07:44:50.121Z,76.00
2019-05-10T07:45:50.111Z,76.00
2019-05-10T07:46:53.861Z,76.00
2019-05-10T07:47:51.080Z,80.00
2019-05-10T07:48:53.497Z,72.00
2019-05-10T07:49:50.061Z,72.00
2019-05-10T07:50:51.914Z,72.00
2019-05-10T07:51:50.048Z,72.00
2019-05-10T07:52:50.025Z,76.00
2019-05-10T07:53:50.015Z,76.00
2019-05-10T07:54:50.002Z,80.00
2019-05-10T07:55:49.992Z,80.00
2019-05-10T07:56:49.979Z,84.00
2019-05-10T07:57:49.977Z,84.00
2019-05-10T07:58:49.957Z,88.00
2019-05-10T07:59:51.267Z,92.00
2019-05-10T08:00:49.936Z,96.00
2019-05-10T08:01:49.924Z,96.00
2019-05-10T08:02:59.241Z,96.00
2019-05-10T08:03:52.498Z,100.00
2019-05-10T08:04:53.009Z,96.00
2019-05-10T08:05:55.169Z,100.00
2019-05-10T08:06:52.074Z,128.00
2019-05-10T08:07:49.855Z,144.00
2019-05-10T08:08:49.914Z,148.00
2019-05-10T08:09:49.846Z,144.00
2019-05-10T08:10:49.823Z,140.00
2019-05-10T08:11:54.147Z,112.00
2019-05-10T08:12:50.800Z,124.00
2019-05-10T08:13:49.789Z,100.00
2019-05-10T08:14:53.376Z,104.00
2019-05-10T08:15:49.796Z,128.00
2019-05-10T08:16:58.179Z,104.00
2019-05-10T08:17:51.042Z,124.00
2019-05-10T08:18:49.983Z,96.00
2019-05-10T08:19:49.721Z,100.00
2019-05-10T08:20:56.708Z,100.00
2019-05-10T08:21:56.458Z,92.00
2019-05-10T08:22:52.552Z,92.00
2019-05-10T08:23:51.896Z,92.00
2019-05-10T08:24:52.894Z,88.00
2019-05-10T08:25:53.092Z,84.00
2019-05-10T08:26:55.503Z,76.00
2019-05-10T08:27:55.160Z,72.00
2019-05-10T08:28:52.391Z,68.00
2019-05-10T08:29:54.568Z,68.00
2019-05-10T08:30:53.621Z,68.00
2019-05-10T08:31:53.675Z,72.00
2019-05-10T08:32:52.622Z,76.00
2019-05-10T08:33:56.075Z,84.00
2019-05-10T08:34:54.841Z,84.00
2019-05-10T08:35:54.539Z,92.00
2019-05-10T08:36:51.950Z,92.00
2019-05-10T08:37:49.518Z,104.00
2019-05-10T08:39:01.538Z,112.00
2019-05-10T08:39:55.787Z,132.00
2019-05-10T08:40:52.712Z,124.00
2019-05-10T08:42:03.304Z,108.00
2019-05-10T08:43:00.208Z,108.00
2019-05-10T08:43:52.563Z,124.00
2019-05-10T08:44:53.680Z,124.00
2019-05-10T08:45:52.467Z,120.00
2019-05-10T08:46:49.422Z,104.00
2019-05-10T08:47:52.929Z,120.00
2019-05-10T08:48:53.629Z,104.00
2019-05-10T08:50:06.356Z,104.00
2019-05-10T08:50:56.772Z,104.00
2019-05-10T08:51:52.268Z,108.00
2019-05-10T08:52:49.367Z,160.00
2019-05-10T08:53:53.508Z,164.00
2019-05-10T08:54:54.964Z,120.00
2019-05-10T08:55:49.315Z,92.00
2019-05-10T08:56:55.017Z,88.00
2019-05-10T08:57:52.350Z,120.00
2019-05-10T08:58:49.282Z,92.00
2019-05-10T08:59:54.211Z,96.00
2019-05-10T09:01:01.310Z,136.00
2019-05-10T09:01:51.454Z,148.00
2019-05-10T09:02:49.237Z,160.00
2019-05-10T09:03:55.117Z,104.00
2019-05-10T09:04:52.479Z,152.00
2019-05-10T09:05:49.203Z,144.00
2019-05-10T09:06:55.435Z,84.00
2019-05-10T09:07:52.090Z,76.00
2019-05-10T09:08:52.981Z,72.00
2019-05-10T09:09:52.862Z,64.00
2019-05-10T09:10:49.147Z,60.00
2019-05-10T09:11:49.137Z,52.00
2019-05-10T09:12:54.165Z,44.00
2019-05-10T09:13:50.112Z,40.00
2019-05-10T09:14:49.133Z,36.00
2019-05-10T09:15:56.053Z,40.00
2019-05-10T09:16:57.530Z,36.00
2019-05-10T09:17:52.588Z,40.00
2019-05-10T09:18:51.169Z,40.00
2019-05-10T09:19:49.046Z,40.00
2019-05-10T09:20:49.035Z,48.00
2019-05-10T09:21:52.218Z,48.00
2019-05-10T09:22:52.653Z,52.00
2019-05-10T09:23:52.883Z,56.00
2019-05-10T09:24:50.118Z,56.00
2019-05-10T09:25:48.978Z,60.00
2019-05-10T09:26:52.782Z,68.00
2019-05-10T09:27:49.986Z,72.00
2019-05-10T09:28:53.483Z,76.00
2019-05-10T09:29:49.931Z,84.00
2019-05-10T09:30:57.610Z,88.00
2019-05-10T09:31:51.269Z,96.00
2019-05-10T09:32:48.900Z,100.00
2019-05-10T09:33:51.157Z,104.00
2019-05-10T09:34:48.877Z,108.00
2019-05-10T09:35:52.365Z,108.00
2019-05-10T09:36:49.853Z,108.00
2019-05-10T09:37:54.226Z,112.00
2019-05-10T09:38:49.867Z,120.00
2019-05-10T09:39:55.362Z,152.00
2019-05-10T09:40:52.983Z,156.00
2019-05-10T09:41:52.483Z,164.00
2019-05-10T09:42:48.789Z,180.00
2019-05-10T09:43:50.577Z,168.00
2019-05-10T09:44:48.771Z,140.00
2019-05-10T09:45:48.755Z,72.00
2019-05-10T09:46:48.747Z,56.00
2019-05-10T09:47:48.730Z,44.00
2019-05-10T09:48:54.529Z,40.00
2019-05-10T09:49:56.614Z,40.00
2019-05-10T09:50:55.117Z,36.00
2019-05-10T09:51:49.684Z,40.00
2019-05-10T09:52:48.675Z,40.00
2019-05-10T09:53:48.767Z,40.00
2019-05-10T09:54:49.583Z,48.00
2019-05-10T09:55:55.304Z,48.00
2019-05-10T09:56:52.344Z,44.00
2019-05-10T09:57:48.623Z,48.00
2019-05-10T09:58:48.681Z,48.00
2019-05-10T09:59:48.595Z,52.00
2019-05-10T10:00:48.683Z,52.00
2019-05-10T10:01:48.585Z,52.00
2019-05-10T10:02:56.270Z,56.00
2019-05-10T10:03:49.551Z,68.00
2019-05-10T10:04:48.540Z,68.00
2019-05-10T10:05:48.546Z,72.00
2019-05-10T10:06:52.706Z,72.00
2019-05-10T10:07:48.538Z,72.00
2019-05-10T10:08:51.900Z,76.00
2019-05-10T10:09:48.486Z,76.00
2019-05-10T10:10:48.474Z,80.00
2019-05-10T10:11:57.756Z,84.00
2019-05-10T10:12:49.470Z,88.00
2019-05-10T10:13:58.488Z,92.00
2019-05-10T10:14:49.425Z,100.00
2019-05-10T10:15:52.039Z,108.00
2019-05-10T10:16:57.840Z,116.00
2019-05-10T10:17:49.392Z,116.00
2019-05-10T10:18:48.394Z,124.00
2019-05-10T10:19:48.370Z,132.00
2019-05-10T10:20:48.360Z,136.00
2019-05-10T10:21:48.348Z,144.00
2019-05-10T10:22:54.153Z,152.00
2019-05-10T10:23:49.355Z,168.00
2019-05-10T10:24:49.068Z,204.00
2019-05-10T10:25:49.307Z,152.00
2019-05-10T10:26:48.358Z,156.00
2019-05-10T10:27:48.285Z,176.00
2019-05-10T10:28:54.462Z,156.00
2019-05-10T10:29:49.278Z,96.00
2019-05-10T10:30:50.405Z,80.00
2019-05-10T10:31:55.288Z,76.00
2019-05-10T10:32:49.224Z,80.00
2019-05-10T10:33:54.946Z,80.00
2019-05-10T10:34:54.063Z,80.00
2019-05-10T10:35:49.198Z,88.00
2019-05-10T10:36:48.179Z,100.00
2019-05-10T10:37:48.173Z,76.00
2019-05-10T10:38:49.680Z,68.00
2019-05-10T10:39:48.146Z,64.00
2019-05-10T10:40:48.135Z,60.00
2019-05-10T10:41:49.202Z,60.00
2019-05-10T10:42:48.111Z,68.00
2019-05-10T10:43:48.540Z,68.00
2019-05-10T10:44:48.387Z,68.00
2019-05-10T10:45:48.078Z,72.00
2019-05-10T10:46:48.231Z,72.00
2019-05-10T10:47:48.063Z,76.00
2019-05-10T10:48:49.321Z,80.00
2019-05-10T10:49:48.033Z,84.00
2019-05-10T10:50:53.363Z,92.00
2019-05-10T10:51:49.010Z,96.00
2019-05-10T10:52:48.001Z,96.00
2019-05-10T10:53:47.994Z,104.00
2019-05-10T10:54:48.095Z,104.00
2019-05-10T10:55:54.100Z,108.00
2019-05-10T10:56:48.954Z,104.00
2019-05-10T10:57:48.246Z,128.00
2019-05-10T10:58:50.075Z,100.00
2019-05-10T10:59:47.951Z,96.00
2019-05-10T11:00:48.248Z,96.00
2019-05-10T11:01:56.652Z,92.00
2019-05-10T11:02:52.065Z,88.00
2019-05-10T11:03:49.016Z,92.00
2019-05-10T11:04:48.978Z,92.00
2019-05-10T11:05:47.860Z,92.00
2019-05-10T11:06:47.847Z,88.00
2019-05-10T11:07:48.057Z,88.00
2019-05-10T11:08:47.820Z,88.00
2019-05-10T11:09:47.809Z,92.00
2019-05-10T11:10:47.796Z,100.00
2019-05-10T11:11:47.820Z,104.00
2019-05-10T11:12:47.775Z,108.00
2019-05-10T11:13:57.337Z,112.00
2019-05-10T11:14:48.750Z,120.00
2019-05-10T11:15:47.741Z,132.00
2019-05-10T11:16:52.815Z,136.00
2019-05-10T11:17:50.624Z,148.00
2019-05-10T11:18:47.707Z,168.00
2019-05-10T11:19:47.695Z,164.00
2019-05-10T11:20:49.495Z,152.00
2019-05-10T11:21:48.672Z,148.00
2019-05-10T11:22:49.726Z,148.00
2019-05-10T11:23:48.680Z,148.00
2019-05-10T11:24:53.388Z,148.00
2019-05-10T11:25:54.711Z,156.00
2019-05-10T11:26:48.617Z,168.00
2019-05-10T11:27:52.906Z,164.00
2019-05-10T11:28:48.593Z,164.00
2019-05-10T11:29:47.592Z,156.00
2019-05-10T11:30:47.572Z,200.00
2019-05-10T11:31:50.161Z,176.00
2019-05-10T11:32:48.548Z,152.00
2019-05-10T11:33:56.122Z,144.00
2019-05-10T11:34:48.534Z,148.00
2019-05-10T11:35:47.522Z,140.00
2019-05-10T11:36:48.321Z,128.00
2019-05-10T11:37:47.502Z,112.00
2019-05-10T11:38:56.543Z,108.00
2019-05-10T11:39:50.454Z,108.00
2019-05-10T11:40:47.470Z,100.00
2019-05-10T11:41:52.777Z,104.00
2019-05-10T11:42:50.876Z,104.00
2019-05-10T11:43:47.427Z,104.00
2019-05-10T11:44:54.337Z,100.00
2019-05-10T11:45:48.410Z,100.00
2019-05-10T11:46:47.392Z,100.00
2019-05-10T11:47:47.972Z,100.00
2019-05-10T11:48:50.739Z,104.00
2019-05-10T11:49:47.359Z,108.00
2019-05-10T11:50:47.346Z,112.00
2019-05-10T11:51:47.832Z,116.00
2019-05-10T11:52:51.076Z,120.00
2019-05-10T11:53:49.002Z,124.00
2019-05-10T11:54:48.300Z,132.00
2019-05-10T11:55:47.291Z,136.00
2019-05-10T11:56:47.280Z,140.00
2019-05-10T11:58:00.767Z,148.00
2019-05-10T11:58:54.931Z,148.00
2019-05-10T11:59:48.243Z,156.00
2019-05-10T12:00:47.236Z,164.00
2019-05-10T12:01:55.089Z,172.00
2019-05-10T12:03:03.397Z,176.00
2019-05-10T12:03:48.199Z,204.00
2019-05-10T12:04:47.189Z,184.00
2019-05-10T12:05:53.154Z,184.00
2019-05-10T12:06:50.425Z,200.00
2019-05-10T12:07:47.156Z,204.00
2019-05-10T12:08:47.155Z,212.00
2019-05-10T12:09:53.291Z,260.00
2019-05-10T12:10:53.163Z,224.00
2019-05-10T12:11:52.035Z,248.00
2019-05-10T12:13:01.772Z,284.00
2019-05-10T12:13:48.097Z,304.00
2019-05-10T12:14:47.078Z,320.00
2019-05-10T12:15:47.065Z,316.00
2019-05-10T12:16:47.055Z,188.00
2019-05-10T12:17:53.962Z,180.00
2019-05-10T12:19:02.328Z,228.00
2019-05-10T12:19:51.645Z,156.00
2019-05-10T12:21:00.348Z,124.00
2019-05-10T12:21:47.997Z,112.00
2019-05-10T12:22:47.683Z,100.00
2019-05-10T12:23:51.048Z,104.00
2019-05-10T12:26:13.467Z,136.00
2019-05-10T12:26:16.199Z,104.00
2019-05-10T12:27:13.878Z,84.00
2019-05-10T12:27:49.901Z,68.00
2019-05-10T12:28:46.918Z,56.00
2019-05-10T12:29:55.452Z,52.00
2019-05-10T12:30:47.895Z,44.00
2019-05-10T12:31:47.359Z,40.00
2019-05-10T12:32:57.229Z,36.00
2019-05-10T12:33:47.861Z,36.00
2019-05-10T12:34:52.005Z,32.00
2019-05-10T12:35:47.838Z,32.00
2019-05-10T12:36:46.829Z,36.00
2019-05-10T12:37:51.444Z,36.00
2019-05-10T12:38:47.804Z,40.00
2019-05-10T12:39:46.796Z,40.00
2019-05-10T12:40:46.793Z,44.00
2019-05-10T12:41:49.826Z,48.00
2019-05-10T12:42:47.788Z,56.00
2019-05-10T12:43:48.510Z,56.00
2019-05-10T12:44:48.259Z,64.00
2019-05-10T12:45:46.728Z,68.00
2019-05-10T12:46:46.722Z,72.00
2019-05-10T12:47:46.706Z,84.00
2019-05-10T12:48:46.724Z,92.00
2019-05-10T12:49:46.683Z,112.00
2019-05-10T12:50:46.675Z,96.00
2019-05-10T12:51:46.663Z,92.00
2019-05-10T12:52:50.520Z,140.00
2019-05-10T12:53:49.826Z,88.00
2019-05-10T12:54:46.646Z,84.00
2019-05-10T12:55:46.621Z,76.00
2019-05-10T12:56:46.612Z,72.00
2019-05-10T12:57:46.601Z,68.00